SWR54B1 LSZH-KBOS
Flight info
| Callsign | SWR54B1 |
|---|---|
| Flight time | N/A |
| Altitude | 38000 |
| Route | DEGES Z1 ETAGO DCT LIRSU L608 DENUT L610 KOPUL Q63 ICTAM M197 ENHAQ DCT GAJIT DCT BAPHU/N0485F400 DCT LESLU/M084F400 DCT EPUNA DCT RODEL/M084F390 NATG NICSO/N0475F400 N258B TUSKY DCT EURRO OOSHN5 |
| Aircraft | A359/H-SBDE2E3FGHIJ3J4J5LM1ORWXY/LB1D1 |
Departure
| Time | 2026-05-06 11:33 |
|---|---|
| Airport | Zürich Airport (LSZH) |
Arrival
| Time | N/A |
|---|---|
| Airport | Boston Logan International Airport (KBOS) |
| Time | Latitude | Longitude | Altitude | Speed | Heading |
|---|---|---|---|---|---|
| 2026-05-06 10:29 | 47.46172 | 8.55492 | 1403 ft | 0 kts | 186° |
| 2026-05-06 11:06 | 47.46187 | 8.55495 | 1411 ft | 4 kts | 186° |
| 2026-05-06 11:06 | 47.46214 | 8.55499 | 1410 ft | 4 kts | 185° |
| 2026-05-06 11:06 | 47.46239 | 8.55497 | 1413 ft | 4 kts | 152° |
| 2026-05-06 11:06 | 47.46256 | 8.55471 | 1413 ft | 4 kts | 108° |
| 2026-05-06 11:07 | 47.46260 | 8.55448 | 1411 ft | 0 kts | 96° |
| 2026-05-06 11:10 | 47.46257 | 8.55452 | 1403 ft | 2 kts | 117° |
| 2026-05-06 11:11 | 47.46228 | 8.55446 | 1406 ft | 6 kts | 214° |
| 2026-05-06 11:11 | 47.46231 | 8.55392 | 1406 ft | 10 kts | 296° |
| 2026-05-06 11:11 | 47.46259 | 8.55312 | 1410 ft | 8 kts | 290° |
| 2026-05-06 11:11 | 47.46267 | 8.55267 | 1412 ft | 4 kts | 270° |
| 2026-05-06 11:12 | 47.46265 | 8.55236 | 1411 ft | 6 kts | 275° |
| 2026-05-06 11:12 | 47.46274 | 8.55152 | 1405 ft | 8 kts | 279° |
| 2026-05-06 11:12 | 47.46283 | 8.55081 | 1410 ft | 6 kts | 281° |
| 2026-05-06 11:12 | 47.46289 | 8.55027 | 1405 ft | 5 kts | 276° |
| 2026-05-06 11:13 | 47.46291 | 8.54995 | 1413 ft | 0 kts | 276° |
| 2026-05-06 11:13 | 47.46291 | 8.54989 | 1409 ft | 6 kts | 276° |
| 2026-05-06 11:13 | 47.46342 | 8.54876 | 1412 ft | 16 kts | 330° |
| 2026-05-06 11:13 | 47.46434 | 8.54822 | 1409 ft | 13 kts | 360° |
| 2026-05-06 11:14 | 47.46514 | 8.54850 | 1408 ft | 11 kts | 12° |
| 2026-05-06 11:14 | 47.46586 | 8.54832 | 1407 ft | 10 kts | 343° |
| 2026-05-06 11:14 | 47.46595 | 8.54828 | 1411 ft | 0 kts | 342° |
| 2026-05-06 11:23 | 47.46605 | 8.54823 | 1413 ft | 10 kts | 340° |
| 2026-05-06 11:23 | 47.46673 | 8.54748 | 1413 ft | 10 kts | 313° |
| 2026-05-06 11:23 | 47.46665 | 8.54711 | 1413 ft | 7 kts | 214° |
| 2026-05-06 11:24 | 47.46581 | 8.54762 | 1412 ft | 24 kts | 149° |
| 2026-05-06 11:24 | 47.46424 | 8.54824 | 1412 ft | 21 kts | 167° |
| 2026-05-06 11:24 | 47.46282 | 8.54899 | 1410 ft | 23 kts | 166° |
| 2026-05-06 11:24 | 47.46164 | 8.54984 | 1413 ft | 21 kts | 154° |
| 2026-05-06 11:25 | 47.46037 | 8.55076 | 1410 ft | 20 kts | 154° |
| 2026-05-06 11:25 | 47.45930 | 8.55170 | 1412 ft | 16 kts | 140° |
| 2026-05-06 11:25 | 47.45891 | 8.55301 | 1411 ft | 17 kts | 99° |
| 2026-05-06 11:25 | 47.45870 | 8.55555 | 1411 ft | 28 kts | 96° |
| 2026-05-06 11:26 | 47.45850 | 8.55824 | 1407 ft | 25 kts | 94° |
| 2026-05-06 11:26 | 47.45837 | 8.56067 | 1405 ft | 23 kts | 96° |
| 2026-05-06 11:26 | 47.45821 | 8.56283 | 1412 ft | 20 kts | 98° |
| 2026-05-06 11:26 | 47.45806 | 8.56468 | 1412 ft | 18 kts | 95° |
| 2026-05-06 11:27 | 47.45791 | 8.56692 | 1413 ft | 23 kts | 95° |
| 2026-05-06 11:27 | 47.45776 | 8.56906 | 1408 ft | 18 kts | 97° |
| 2026-05-06 11:27 | 47.45722 | 8.57010 | 1418 ft | 0 kts | 158° |
| 2026-05-06 11:29 | 47.45689 | 8.57019 | 1417 ft | 4 kts | 187° |
| 2026-05-06 11:30 | 47.45685 | 8.57014 | 1417 ft | 0 kts | 212° |
| 2026-05-06 11:30 | 47.45680 | 8.57006 | 1416 ft | 0 kts | 226° |
| 2026-05-06 11:30 | 47.45679 | 8.57003 | 1415 ft | 3 kts | 232° |
| 2026-05-06 11:31 | 47.45672 | 8.56884 | 1417 ft | 8 kts | 273° |
| 2026-05-06 11:31 | 47.45672 | 8.56879 | 1417 ft | 0 kts | 274° |
| 2026-05-06 11:32 | 47.45672 | 8.56877 | 1417 ft | 1 kts | 274° |
| 2026-05-06 11:32 | 47.45673 | 8.56856 | 1417 ft | 14 kts | 273° |
| 2026-05-06 11:33 | 47.45706 | 8.56377 | 1417 ft | 78 kts | 276° |
| 2026-05-06 11:33 | 47.45788 | 8.55256 | 1406 ft | 140 kts | 277° |
| 2026-05-06 11:33 | 47.45929 | 8.53606 | 1671 ft | 167 kts | 279° |
| 2026-05-06 11:33 | 47.46110 | 8.51982 | 2544 ft | 153 kts | 278° |
| 2026-05-06 11:34 | 47.46224 | 8.50386 | 2978 ft | 163 kts | 273° |
| 2026-05-06 11:34 | 47.46265 | 8.48599 | 3210 ft | 185 kts | 266° |
| 2026-05-06 11:34 | 47.45802 | 8.46748 | 3512 ft | 201 kts | 233° |
| 2026-05-06 11:34 | 47.44786 | 8.45344 | 4073 ft | 205 kts | 223° |
| 2026-05-06 11:35 | 47.43855 | 8.43731 | 4606 ft | 209 kts | 243° |
| 2026-05-06 11:35 | 47.43345 | 8.41710 | 5211 ft | 212 kts | 254° |
| 2026-05-06 11:35 | 47.42945 | 8.39592 | 5921 ft | 214 kts | 253° |
| 2026-05-06 11:35 | 47.42297 | 8.37612 | 6626 ft | 217 kts | 232° |
| 2026-05-06 11:36 | 47.41103 | 8.36303 | 7478 ft | 214 kts | 202° |
| 2026-05-06 11:36 | 47.39604 | 8.36037 | 8128 ft | 229 kts | 174° |
| 2026-05-06 11:36 | 47.38149 | 8.37096 | 8906 ft | 240 kts | 140° |
| 2026-05-06 11:36 | 47.37277 | 8.39185 | 9728 ft | 246 kts | 107° |
| 2026-05-06 11:37 | 47.37328 | 8.41709 | 10351 ft | 253 kts | 71° |
| 2026-05-06 11:37 | 47.38368 | 8.43797 | 10911 ft | 259 kts | 35° |
| 2026-05-06 11:37 | 47.39972 | 8.45018 | 11533 ft | 261 kts | 23° |
| 2026-05-06 11:37 | 47.41525 | 8.46353 | 12185 ft | 262 kts | 38° |
| 2026-05-06 11:38 | 47.43043 | 8.47868 | 12834 ft | 264 kts | 32° |
| 2026-05-06 11:38 | 47.44636 | 8.49260 | 13501 ft | 267 kts | 31° |
| 2026-05-06 11:38 | 47.46254 | 8.50638 | 14118 ft | 270 kts | 31° |
| 2026-05-06 11:38 | 47.47886 | 8.52027 | 14729 ft | 272 kts | 31° |
| 2026-05-06 11:39 | 47.49530 | 8.53428 | 15343 ft | 274 kts | 31° |
| 2026-05-06 11:39 | 47.51190 | 8.54840 | 15977 ft | 276 kts | 31° |
| 2026-05-06 11:39 | 47.52858 | 8.56266 | 16630 ft | 277 kts | 31° |
| 2026-05-06 11:39 | 47.54504 | 8.57675 | 17245 ft | 272 kts | 31° |
| 2026-05-06 11:40 | 47.56131 | 8.59070 | 17885 ft | 272 kts | 30° |